sensor_id;sensor_type;location;lat;lon;timestamp;P1;durP1;ratioP1;P2;durP2;ratioP2
73895;SDS011;73986;50.770;6.080;2024-03-25T06:49:25;17.92;;;6.20;;
73895;SDS011;73986;50.770;6.080;2024-03-25T06:59:25;12.63;;;5.22;;
73895;SDS011;73986;50.770;6.080;2024-03-25T07:09:27;15.38;;;6.65;;
73895;SDS011;73986;50.770;6.080;2024-03-25T07:19:28;14.88;;;5.78;;
73895;SDS011;73986;50.770;6.080;2024-03-25T07:29:30;12.23;;;5.13;;
73895;SDS011;73986;50.770;6.080;2024-03-25T07:39:31;13.77;;;4.72;;
73895;SDS011;73986;50.770;6.080;2024-03-25T07:49:33;8.97;;;4.10;;
73895;SDS011;73986;50.770;6.080;2024-03-25T07:59:34;10.23;;;4.55;;
73895;SDS011;73986;50.770;6.080;2024-03-25T08:09:36;16.08;;;4.45;;
73895;SDS011;73986;50.770;6.080;2024-03-25T08:19:36;9.32;;;4.00;;
73895;SDS011;73986;50.770;6.080;2024-03-25T08:29:38;8.55;;;4.05;;
73895;SDS011;73986;50.770;6.080;2024-03-25T08:39:39;9.85;;;3.50;;
73895;SDS011;73986;50.770;6.080;2024-03-25T08:49:41;6.47;;;3.37;;
73895;SDS011;73986;50.770;6.080;2024-03-25T08:59:42;8.48;;;3.38;;
73895;SDS011;73986;50.770;6.080;2024-03-25T09:09:44;5.83;;;2.03;;
73895;SDS011;73986;50.770;6.080;2024-03-25T09:19:59;4.95;;;2.05;;
73895;SDS011;73986;50.770;6.080;2024-03-25T09:30:01;6.40;;;2.10;;
73895;SDS011;73986;50.770;6.080;2024-03-25T09:40:02;5.93;;;2.20;;
73895;SDS011;73986;50.770;6.080;2024-03-25T09:50:05;8.57;;;3.13;;
73895;SDS011;73986;50.770;6.080;2024-03-25T10:00:09;4.43;;;1.50;;
73895;SDS011;73986;50.770;6.080;2024-03-25T10:10:12;6.30;;;2.10;;
73895;SDS011;73986;50.770;6.080;2024-03-25T10:20:13;4.25;;;1.40;;
73895;SDS011;73986;50.770;6.080;2024-03-25T10:30:16;3.63;;;1.60;;
73895;SDS011;73986;50.770;6.080;2024-03-25T10:40:17;8.02;;;3.40;;
73895;SDS011;73986;50.770;6.080;2024-03-25T10:50:19;7.18;;;1.50;;
73895;SDS011;73986;50.770;6.080;2024-03-25T11:00:24;3.78;;;1.60;;
73895;SDS011;73986;50.770;6.080;2024-03-25T11:10:30;6.43;;;1.80;;
73895;SDS011;73986;50.770;6.080;2024-03-25T11:20:30;5.28;;;1.77;;
73895;SDS011;73986;50.770;6.080;2024-03-25T11:30:32;4.43;;;1.60;;
73895;SDS011;73986;50.770;6.080;2024-03-25T11:40:34;4.47;;;1.52;;
73895;SDS011;73986;50.770;6.080;2024-03-25T11:50:37;6.53;;;2.17;;
73895;SDS011;73986;50.770;6.080;2024-03-25T12:00:42;4.57;;;1.80;;
73895;SDS011;73986;50.770;6.080;2024-03-25T12:10:45;4.75;;;1.83;;
73895;SDS011;73986;50.770;6.080;2024-03-25T12:21:04;5.55;;;2.00;;
73895;SDS011;73986;50.770;6.080;2024-03-25T12:31:08;5.47;;;1.95;;
73895;SDS011;73986;50.770;6.080;2024-03-25T12:41:09;5.82;;;1.80;;
73895;SDS011;73986;50.770;6.080;2024-03-25T12:51:13;5.72;;;1.70;;
73895;SDS011;73986;50.770;6.080;2024-03-25T13:01:15;4.20;;;2.00;;
73895;SDS011;73986;50.770;6.080;2024-03-25T13:11:17;5.43;;;1.83;;
73895;SDS011;73986;50.770;6.080;2024-03-25T13:21:18;5.50;;;1.80;;
73895;SDS011;73986;50.770;6.080;2024-03-25T13:31:20;6.10;;;1.93;;
73895;SDS011;73986;50.770;6.080;2024-03-25T13:41:20;5.60;;;1.55;;
73895;SDS011;73986;50.770;6.080;2024-03-25T13:51:23;4.65;;;1.63;;
73895;SDS011;73986;50.770;6.080;2024-03-25T14:01:24;4.07;;;1.50;;
73895;SDS011;73986;50.770;6.080;2024-03-25T14:11:26;4.15;;;1.50;;
73895;SDS011;73986;50.770;6.080;2024-03-25T14:21:26;4.50;;;1.70;;
73895;SDS011;73986;50.770;6.080;2024-03-25T14:31:28;4.87;;;1.60;;
73895;SDS011;73986;50.770;6.080;2024-03-25T14:41:29;3.22;;;1.50;;
73895;SDS011;73986;50.770;6.080;2024-03-25T14:51:40;3.88;;;1.67;;
73895;SDS011;73986;50.770;6.080;2024-03-25T15:01:40;3.65;;;1.60;;
73895;SDS011;73986;50.770;6.080;2024-03-25T15:11:42;4.10;;;1.50;;
73895;SDS011;73986;50.770;6.080;2024-03-25T15:21:43;6.45;;;1.48;;
73895;SDS011;73986;50.770;6.080;2024-03-25T15:31:45;3.47;;;1.30;;
73895;SDS011;73986;50.770;6.080;2024-03-25T15:41:46;3.00;;;1.40;;
73895;SDS011;73986;50.770;6.080;2024-03-25T15:51:48;3.47;;;1.27;;
73895;SDS011;73986;50.770;6.080;2024-03-25T16:01:48;4.05;;;1.42;;
73895;SDS011;73986;50.770;6.080;2024-03-25T16:11:50;3.77;;;1.50;;
73895;SDS011;73986;50.770;6.080;2024-03-25T16:21:51;2.92;;;1.30;;
73895;SDS011;73986;50.770;6.080;2024-03-25T16:31:53;3.35;;;1.33;;
73895;SDS011;73986;50.770;6.080;2024-03-25T16:41:53;4.88;;;1.50;;
73895;SDS011;73986;50.770;6.080;2024-03-25T16:51:55;4.60;;;1.50;;
73895;SDS011;73986;50.770;6.080;2024-03-25T17:01:56;5.13;;;1.67;;
73895;SDS011;73986;50.770;6.080;2024-03-25T17:11:58;5.17;;;1.97;;
73895;SDS011;73986;50.770;6.080;2024-03-25T17:21:58;4.95;;;1.88;;
73895;SDS011;73986;50.770;6.080;2024-03-25T17:32:00;5.87;;;1.73;;
73895;SDS011;73986;50.770;6.080;2024-03-25T17:42:01;3.17;;;1.45;;
73895;SDS011;73986;50.770;6.080;2024-03-25T17:52:03;4.15;;;1.45;;
73895;SDS011;73986;50.770;6.080;2024-03-25T18:02:05;4.35;;;1.92;;
73895;SDS011;73986;50.770;6.080;2024-03-25T18:12:07;4.73;;;1.80;;
73895;SDS011;73986;50.770;6.080;2024-03-25T18:22:08;2.75;;;1.30;;
73895;SDS011;73986;50.770;6.080;2024-03-25T18:32:10;3.63;;;1.67;;
73895;SDS011;73986;50.770;6.080;2024-03-25T18:42:10;3.50;;;1.60;;
73895;SDS011;73986;50.770;6.080;2024-03-25T18:52:12;8.17;;;1.77;;
73895;SDS011;73986;50.770;6.080;2024-03-25T19:02:13;14.32;;;2.17;;
73895;SDS011;73986;50.770;6.080;2024-03-25T19:12:15;5.87;;;2.03;;
73895;SDS011;73986;50.770;6.080;2024-03-25T19:22:16;3.33;;;1.50;;
73895;SDS011;73986;50.770;6.080;2024-03-25T19:32:17;12.00;;;1.73;;
73895;SDS011;73986;50.770;6.080;2024-03-25T19:42:18;3.13;;;1.40;;
73895;SDS011;73986;50.770;6.080;2024-03-25T19:52:20;5.80;;;2.08;;
73895;SDS011;73986;50.770;6.080;2024-03-25T20:02:21;7.43;;;1.60;;
73895;SDS011;73986;50.770;6.080;2024-03-25T20:12:23;5.75;;;2.00;;
73895;SDS011;73986;50.770;6.080;2024-03-25T20:22:24;4.90;;;2.20;;
73895;SDS011;73986;50.770;6.080;2024-03-25T20:32:26;7.28;;;1.70;;
73895;SDS011;73986;50.770;6.080;2024-03-25T20:42:26;3.70;;;1.20;;
73895;SDS011;73986;50.770;6.080;2024-03-25T20:52:28;3.58;;;1.70;;
73895;SDS011;73986;50.770;6.080;2024-03-25T21:02:29;5.95;;;1.80;;
73895;SDS011;73986;50.770;6.080;2024-03-25T21:12:31;5.30;;;1.83;;
73895;SDS011;73986;50.770;6.080;2024-03-25T21:22:31;3.55;;;1.35;;
73895;SDS011;73986;50.770;6.080;2024-03-25T21:32:33;4.03;;;1.57;;
73895;SDS011;73986;50.770;6.080;2024-03-25T21:42:34;4.68;;;1.42;;
73895;SDS011;73986;50.770;6.080;2024-03-25T21:52:36;4.10;;;1.48;;
73895;SDS011;73986;50.770;6.080;2024-03-25T22:02:37;2.88;;;1.77;;
73895;SDS011;73986;50.770;6.080;2024-03-25T22:12:39;3.85;;;1.38;;
73895;SDS011;73986;50.770;6.080;2024-03-25T22:22:40;2.20;;;1.17;;
73895;SDS011;73986;50.770;6.080;2024-03-25T22:32:42;5.25;;;1.30;;
73895;SDS011;73986;50.770;6.080;2024-03-25T22:42:42;5.50;;;1.27;;
73895;SDS011;73986;50.770;6.080;2024-03-25T22:52:46;2.42;;;1.05;;
73895;SDS011;73986;50.770;6.080;2024-03-25T23:02:46;2.22;;;1.00;;
73895;SDS011;73986;50.770;6.080;2024-03-25T23:12:48;2.47;;;1.20;;
73895;SDS011;73986;50.770;6.080;2024-03-25T23:22:49;2.53;;;1.25;;
73895;SDS011;73986;50.770;6.080;2024-03-25T23:32:51;2.97;;;1.73;;
73895;SDS011;73986;50.770;6.080;2024-03-25T23:42:52;4.80;;;1.70;;
73895;SDS011;73986;50.770;6.080;2024-03-25T23:52:54;3.83;;;1.88;;
